Time;durP1;ratioP1;P1;durP2;ratioP2;P2;SDS_P1;SDS_P2;PMS_P1;PMS_P2;Temp;Humidity;BMP_temperature;BMP_pressure;BME280_temperature;BME280_humidity;BME280_pressure;Samples;Min_cycle;Max_cycle;Signal;HPM_P1;HPM_P2
2023/08/24 00:00:46;;;;;;;8.33;7.53;;;21.20;99.90;;;;;;5025635;28;20491;-68
2023/08/24 00:03:13;;;;;;;12.90;6.13;;;21.10;99.90;;;;;;5026028;28;20487;-68
2023/08/24 00:05:41;;;;;;;12.60;6.53;;;21.00;99.90;;;;;;5025191;28;21042;-69
2023/08/24 00:08:09;;;;;;;7.40;5.63;;;21.00;99.90;;;;;;5020636;28;20483;-68
2023/08/24 00:10:37;;;;;;;10.73;5.77;;;20.90;99.90;;;;;;5026771;28;20482;-69
2023/08/24 00:13:05;;;;;;;7.10;5.37;;;21.00;99.90;;;;;;5023042;28;20497;-68
2023/08/24 00:15:33;;;;;;;8.97;6.13;;;21.00;99.90;;;;;;5025468;28;20488;-69
2023/08/24 00:18:00;;;;;;;10.90;7.07;;;;;;;;;;5022950;28;21093;-69
2023/08/24 00:20:28;;;;;;;9.10;7.33;;;21.00;99.90;;;;;;5026673;28;20593;-68
2023/08/24 00:22:55;;;;;;;15.53;8.17;;;21.10;99.90;;;;;;5023028;28;20472;-68
2023/08/24 00:25:22;;;;;;;10.23;7.53;;;21.10;99.90;;;;;;5025079;28;20554;-68
2023/08/24 00:27:48;;;;;;;11.20;7.33;;;21.10;99.90;;;;;;5025236;28;20493;-68
2023/08/24 00:30:15;;;;;;;9.37;6.50;;;21.10;99.90;;;;;;5024174;28;20869;-68
2023/08/24 00:32:44;;;;;;;17.23;8.47;;;21.10;99.90;;;;;;5026164;28;20494;-69
2023/08/24 00:35:11;;;;;;;12.10;9.17;;;21.20;99.90;;;;;;5025358;28;21229;-68
2023/08/24 00:37:38;;;;;;;10.40;6.83;;;21.20;99.90;;;;;;5029290;28;20512;-68
2023/08/24 00:40:09;;;;;;;17.37;7.70;;;21.20;99.90;;;;;;5026332;28;20531;-69
2023/08/24 00:42:39;;;;;;;14.70;7.70;;;21.30;99.90;;;;;;5012815;28;20591;-68
2023/08/24 00:45:07;;;;;;;9.20;7.67;;;21.30;99.90;;;;;;5034771;28;20510;-69
2023/08/24 00:47:34;;;;;;;9.43;6.63;;;21.30;99.90;;;;;;5024351;28;20495;-68
2023/08/24 00:50:03;;;;;;;8.23;7.43;;;21.30;99.90;;;;;;5024410;28;20582;-69
2023/08/24 00:52:32;;;;;;;17.83;8.00;;;21.30;99.90;;;;;;5026039;28;21005;-69
2023/08/24 00:55:00;;;;;;;8.63;7.43;;;21.30;99.90;;;;;;5025595;28;20568;-68
2023/08/24 00:57:28;;;;;;;13.60;7.50;;;21.20;99.90;;;;;;5025659;28;20482;-68
2023/08/24 00:59:57;;;;;;;9.83;7.87;;;21.30;99.90;;;;;;5024901;28;20758;-69
2023/08/24 01:02:24;;;;;;;6.80;6.20;;;21.30;99.90;;;;;;5026129;28;20480;-69
2023/08/24 01:04:52;;;;;;;7.97;7.27;;;21.40;99.90;;;;;;5028321;28;21003;-70
2023/08/24 01:07:21;;;;;;;11.40;7.30;;;21.40;99.90;;;;;;5030676;28;20888;-69
2023/08/24 01:09:49;;;;;;;6.73;6.10;;;21.40;99.90;;;;;;5018945;28;20491;-69
2023/08/24 01:12:27;;;;;;;8.27;6.80;;;21.40;99.90;;;;;;5028797;28;21368;-69
2023/08/24 01:15:02;;;;;;;9.53;6.77;;;21.40;99.90;;;;;;5027284;28;20491;-68
2023/08/24 01:17:31;;;;;;;8.03;7.23;;;21.40;99.90;;;;;;5029849;28;20956;-69
2023/08/24 01:20:00;;;;;;;7.77;6.70;;;21.40;99.90;;;;;;5029619;28;20575;-69
2023/08/24 01:22:35;;;;;;;17.40;6.60;;;21.40;99.90;;;;;;5028597;28;20517;-68
2023/08/24 01:25:08;;;;;;;9.97;7.30;;;21.40;99.90;;;;;;5028396;28;20479;-70
2023/08/24 01:27:38;;;;;;;8.70;6.90;;;21.30;99.90;;;;;;5028297;28;20494;-70
2023/08/24 01:30:07;;;;;;;8.53;6.90;;;21.30;99.90;;;;;;5028672;28;21276;-68
2023/08/24 01:32:36;;;;;;;8.83;7.00;;;21.30;99.90;;;;;;5030800;28;20483;-69
2023/08/24 01:35:06;;;;;;;11.27;8.10;;;21.30;99.90;;;;;;5026447;28;20916;-69
2023/08/24 01:37:35;;;;;;;8.10;6.93;;;21.30;99.90;;;;;;5025996;28;20490;-69
2023/08/24 01:40:09;;;;;;;10.07;7.13;;;21.40;99.90;;;;;;5026446;28;20480;-69
2023/08/24 01:42:45;;;;;;;8.70;7.80;;;21.30;99.90;;;;;;5023643;28;20553;-68
2023/08/24 01:45:13;;;;;;;6.00;5.50;;;21.30;99.90;;;;;;5022293;28;20582;-69
2023/08/24 01:47:43;;;;;;;10.27;7.70;;;21.30;99.90;;;;;;5029527;28;20834;-67
2023/08/24 01:50:10;;;;;;;6.83;6.00;;;21.30;99.90;;;;;;5025105;28;20683;-69
2023/08/24 01:52:37;;;;;;;12.13;8.20;;;21.30;99.90;;;;;;5028149;28;20922;-71
2023/08/24 01:55:05;;;;;;;7.73;7.00;;;21.30;99.90;;;;;;5029426;28;20476;-69
2023/08/24 01:57:32;;;;;;;7.93;7.20;;;21.30;99.90;;;;;;5034040;28;20566;-70
2023/08/24 02:00:00;;;;;;;8.17;7.37;;;21.20;99.90;;;;;;5025712;28;20826;-70
2023/08/24 02:02:27;;;;;;;7.90;7.10;;;21.20;99.90;;;;;;5018351;28;20486;-69
2023/08/24 02:04:54;;;;;;;14.13;8.20;;;21.20;99.90;;;;;;5036121;28;20585;-70
2023/08/24 02:07:21;;;;;;;9.77;7.57;;;21.20;99.90;;;;;;5028447;28;20577;-68
2023/08/24 02:09:47;;;;;;;7.23;6.53;;;21.20;99.90;;;;;;5031127;28;20915;-69
2023/08/24 02:12:14;;;;;;;6.47;5.97;;;21.20;99.90;;;;;;5028307;28;21162;-71
2023/08/24 02:14:41;;;;;;;16.37;7.33;;;21.20;99.90;;;;;;5032507;28;20485;-70
2023/08/24 02:17:09;;;;;;;8.37;6.87;;;21.20;99.90;;;;;;5028780;28;20649;-71
2023/08/24 02:19:36;;;;;;;12.07;7.80;;;21.20;99.90;;;;;;5029215;28;20533;-69
2023/08/24 02:22:03;;;;;;;11.83;6.30;;;21.10;99.90;;;;;;5029380;28;20591;-70
2023/08/24 02:24:30;;;;;;;13.30;6.57;;;21.10;99.90;;;;;;5030147;28;20534;-68
2023/08/24 02:26:57;;;;;;;8.50;7.17;;;21.10;99.90;;;;;;5026725;28;20479;-71
2023/08/24 02:29:24;;;;;;;7.80;6.10;;;21.10;99.90;;;;;;5030478;28;20475;-72
2023/08/24 02:31:51;;;;;;;15.70;6.90;;;21.00;99.90;;;;;;5030554;28;20488;-70
2023/08/24 02:34:19;;;;;;;8.43;7.50;;;21.00;99.90;;;;;;5023109;28;20508;-70
2023/08/24 02:36:46;;;;;;;9.30;6.80;;;21.00;99.90;;;;;;5032379;28;20479;-68
2023/08/24 02:39:13;;;;;;;10.10;6.60;;;21.10;99.90;;;;;;5027792;28;20827;-70
2023/08/24 02:41:40;;;;;;;16.57;7.27;;;21.10;99.90;;;;;;5032237;28;20479;-70
2023/08/24 02:44:07;;;;;;;8.17;6.70;;;21.10;99.90;;;;;;5030747;28;20564;-69
2023/08/24 02:46:34;;;;;;;7.37;6.40;;;21.10;99.90;;;;;;5025504;28;20595;-71
2023/08/24 02:49:01;;;;;;;7.53;6.60;;;21.10;99.90;;;;;;5025982;28;20928;-71
2023/08/24 02:51:31;;;;;;;8.50;6.87;;;21.10;99.90;;;;;;5026029;28;20481;-68
2023/08/24 02:53:58;;;;;;;8.43;7.50;;;21.10;99.90;;;;;;5026302;28;20526;-67
2023/08/24 02:56:25;;;;;;;9.33;6.93;;;21.20;99.90;;;;;;5031475;28;20914;-69
2023/08/24 02:58:52;;;;;;;9.03;7.70;;;21.20;99.90;;;;;;5029051;28;20935;-67
2023/08/24 03:01:19;;;;;;;8.00;7.20;;;21.20;99.90;;;;;;5030779;28;20556;-71
2023/08/24 03:03:46;;;;;;;11.17;6.87;;;21.20;99.90;;;;;;5030868;28;20479;-68
2023/08/24 03:06:13;;;;;;;10.60;7.23;;;21.10;99.90;;;;;;5026388;28;20477;-69
2023/08/24 03:08:41;;;;;;;7.83;7.07;;;21.10;99.90;;;;;;5025923;28;20472;-69
2023/08/24 03:11:08;;;;;;;7.00;6.40;;;21.10;99.90;;;;;;5028083;28;20507;-69
2023/08/24 03:13:37;;;;;;;7.47;6.63;;;21.10;99.90;;;;;;5034792;28;20567;-69
2023/08/24 03:16:05;;;;;;;8.33;7.50;;;21.10;99.90;;;;;;5030305;28;20486;-70
2023/08/24 03:18:32;;;;;;;7.10;6.50;;;21.10;99.90;;;;;;5031786;28;20487;-67
2023/08/24 03:21:00;;;;;;;8.33;7.43;;;21.20;99.90;;;;;;5026419;28;20607;-71
2023/08/24 03:23:27;;;;;;;10.33;7.83;;;21.20;99.90;;;;;;5029366;28;20500;-67
2023/08/24 03:25:56;;;;;;;11.90;7.40;;;21.20;99.90;;;;;;5032738;28;20574;-70
2023/08/24 03:28:23;;;;;;;8.63;7.40;;;21.20;99.90;;;;;;5028568;28;20953;-70
2023/08/24 03:30:54;;;;;;;9.60;7.90;;;21.20;99.90;;;;;;5033694;28;20507;-69
2023/08/24 03:33:21;;;;;;;9.30;8.00;;;21.20;99.90;;;;;;5020602;28;20506;-71
2023/08/24 03:35:49;;;;;;;8.80;7.90;;;21.20;99.90;;;;;;5019079;28;20923;-68
2023/08/24 03:38:16;;;;;;;7.60;6.90;;;21.20;99.90;;;;;;5042538;28;20575;-70
2023/08/24 03:40:43;;;;;;;7.80;7.10;;;21.20;99.90;;;;;;5033340;28;20476;-71
2023/08/24 03:43:11;;;;;;;15.73;6.57;;;21.20;99.90;;;;;;5027328;28;20567;-71
2023/08/24 03:45:38;;;;;;;7.60;6.60;;;21.20;99.90;;;;;;5027346;28;20572;-71
2023/08/24 03:48:05;;;;;;;13.97;7.03;;;21.10;99.90;;;;;;5025673;28;20558;-71
2023/08/24 03:50:32;;;;;;;7.50;6.20;;;21.10;99.90;;;;;;5024820;28;20683;-69
2023/08/24 03:52:59;;;;;;;8.07;7.27;;;21.00;99.90;;;;;;5032902;28;20476;-71
2023/08/24 03:55:26;;;;;;;9.47;7.27;;;21.00;99.90;;;;;;5025616;28;20492;-71
2023/08/24 03:57:54;;;;;;;17.77;8.00;;;20.90;99.90;;;;;;5022786;28;20951;-71
2023/08/24 04:00:22;;;;;;;11.30;7.20;;;20.80;99.90;;;;;;5030839;28;20571;-72
2023/08/24 04:02:49;;;;;;;8.93;6.87;;;20.80;99.90;;;;;;5028676;28;20476;-71
2023/08/24 04:05:17;;;;;;;10.23;7.97;;;20.70;99.90;;;;;;5032032;28;20891;-71
2023/08/24 04:07:44;;;;;;;27.63;7.97;;;20.80;99.90;;;;;;5033673;28;20618;-69
2023/08/24 04:10:11;;;;;;;8.10;7.23;;;20.80;99.90;;;;;;5016236;28;20476;-68
2023/08/24 04:12:38;;;;;;;7.53;6.70;;;20.80;99.90;;;;;;5029889;28;21163;-71
2023/08/24 04:15:06;;;;;;;8.90;6.70;;;20.80;99.90;;;;;;5031549;28;21024;-71
2023/08/24 04:17:34;;;;;;;8.43;7.37;;;20.80;99.90;;;;;;5023893;28;20482;-69
2023/08/24 04:20:01;;;;;;;8.17;7.00;;;20.80;99.90;;;;;;5021126;28;20539;-71
2023/08/24 04:22:28;;;;;;;10.90;7.07;;;20.80;99.90;;;;;;5028369;28;20599;-67
2023/08/24 04:24:55;;;;;;;8.10;7.30;;;20.80;99.90;;;;;;5026490;28;20479;-69
2023/08/24 04:27:22;;;;;;;12.37;7.00;;;20.80;99.90;;;;;;5023634;28;20576;-68
2023/08/24 04:29:49;;;;;;;9.30;6.40;;;20.90;99.90;;;;;;5022840;28;20481;-69
2023/08/24 04:32:16;;;;;;;8.67;7.63;;;20.90;99.90;;;;;;5031137;28;21076;-70
2023/08/24 04:34:44;;;;;;;10.40;7.77;;;20.90;99.90;;;;;;5030674;28;20932;-71
2023/08/24 04:37:11;;;;;;;7.43;6.77;;;20.90;99.90;;;;;;5029422;28;20562;-71
2023/08/24 04:39:38;;;;;;;8.03;7.23;;;20.90;99.90;;;;;;5022847;28;20563;-65
2023/08/24 04:42:05;;;;;;;7.07;6.37;;;20.90;99.90;;;;;;5025284;28;20491;-65
2023/08/24 04:44:32;;;;;;;7.67;6.97;;;20.70;99.90;;;;;;5028931;28;20496;-66
2023/08/24 04:47:00;;;;;;;6.53;5.60;;;20.80;99.90;;;;;;5028553;28;21236;-65
2023/08/24 04:49:28;;;;;;;12.13;7.07;;;20.60;99.90;;;;;;5024433;28;20480;-66
2023/08/24 04:51:56;;;;;;;10.30;7.37;;;20.60;99.90;;;;;;5022952;28;21544;-65
2023/08/24 04:54:23;;;;;;;7.60;6.87;;;20.60;99.90;;;;;;5029764;28;20517;-65
2023/08/24 04:56:50;;;;;;;10.33;7.20;;;;;;;;;;5019443;28;20566;-65
2023/08/24 04:59:17;;;;;;;10.60;7.63;;;20.60;99.90;;;;;;5029320;28;20570;-65
2023/08/24 05:01:44;;;;;;;8.00;6.63;;;20.60;99.90;;;;;;5029565;28;20601;-65
2023/08/24 05:04:11;;;;;;;7.10;6.50;;;20.70;99.90;;;;;;5023493;28;20603;-66
2023/08/24 05:06:38;;;;;;;11.27;7.73;;;20.70;99.90;;;;;;5025693;28;20909;-65
2023/08/24 05:09:06;;;;;;;11.83;6.90;;;20.80;99.90;;;;;;5027296;28;20832;-65
2023/08/24 05:11:33;;;;;;;8.63;7.70;;;20.80;99.90;;;;;;5015830;28;20728;-65
2023/08/24 05:14:00;;;;;;;15.27;6.60;;;20.80;99.90;;;;;;5032341;28;20544;-66
2023/08/24 05:16:27;;;;;;;10.50;6.77;;;20.80;99.90;;;;;;5020644;28;20602;-65
2023/08/24 05:18:54;;;;;;;7.10;6.50;;;20.90;99.90;;;;;;5035539;28;20475;-64
2023/08/24 05:21:21;;;;;;;8.27;6.70;;;20.90;99.90;;;;;;5026339;28;20518;-65
2023/08/24 05:23:48;;;;;;;22.27;7.13;;;21.00;99.90;;;;;;5023947;28;20552;-64
2023/08/24 05:26:22;;;;;;;10.50;7.10;;;21.00;99.90;;;;;;5030041;28;21024;-64
2023/08/24 05:28:49;;;;;;;7.03;6.43;;;21.10;99.90;;;;;;5030312;28;20487;-66
2023/08/24 05:31:15;;;;;;;7.53;6.80;;;21.20;99.90;;;;;;5028727;28;20923;-65
2023/08/24 05:33:42;;;;;;;13.70;6.93;;;21.20;99.90;;;;;;5029328;28;20952;-64
2023/08/24 05:36:09;;;;;;;6.87;6.30;;;21.20;99.90;;;;;;5024738;28;20477;-64
2023/08/24 05:38:36;;;;;;;8.40;6.27;;;21.30;99.90;;;;;;5029010;28;21003;-64
2023/08/24 05:41:04;;;;;;;11.43;6.03;;;21.30;99.90;;;;;;5021043;28;20903;-64
2023/08/24 05:43:33;;;;;;;22.63;6.87;;;;;;;;;;5020811;28;20496;-64
2023/08/24 05:45:59;;;;;;;17.50;6.80;;;21.30;99.90;;;;;;5028667;28;20570;-64
2023/08/24 05:48:26;;;;;;;17.40;6.60;;;21.30;99.90;;;;;;5028605;28;20479;-65
2023/08/24 05:50:53;;;;;;;6.50;5.90;;;21.40;99.90;;;;;;5026564;28;20490;-65
2023/08/24 05:53:20;;;;;;;12.13;7.37;;;;;;;;;;5031179;28;20483;-65
2023/08/24 05:55:47;;;;;;;12.37;6.30;;;21.40;99.90;;;;;;5033399;28;20835;-65
2023/08/24 05:58:14;;;;;;;6.93;5.50;;;21.40;99.90;;;;;;5031749;28;20599;-66
2023/08/24 06:00:42;;;;;;;9.40;7.00;;;21.50;99.90;;;;;;5016594;28;20570;-65
2023/08/24 06:03:09;;;;;;;7.73;5.80;;;21.60;99.90;;;;;;5034279;28;20491;-65
2023/08/24 06:05:36;;;;;;;8.50;6.10;;;21.60;99.90;;;;;;5019469;28;20562;-64
2023/08/24 06:08:04;;;;;;;10.60;7.43;;;21.70;99.90;;;;;;5037553;28;20736;-65
2023/08/24 06:10:31;;;;;;;6.47;5.47;;;21.80;99.90;;;;;;5024935;28;20939;-65
2023/08/24 06:12:57;;;;;;;8.97;6.87;;;21.90;99.90;;;;;;5026368;28;20566;-64
2023/08/24 06:15:27;;;;;;;12.70;7.40;;;21.90;99.90;;;;;;5027649;28;20566;-65
2023/08/24 06:17:56;;;;;;;10.13;6.73;;;22.10;99.90;;;;;;5034393;28;20486;-66
2023/08/24 06:20:22;;;;;;;9.60;6.73;;;22.20;99.90;;;;;;5026508;28;20585;-65
2023/08/24 06:22:50;;;;;;;6.67;6.03;;;22.30;99.90;;;;;;5026159;28;20575;-65
2023/08/24 06:25:17;;;;;;;7.40;6.70;;;22.30;99.90;;;;;;5024803;28;21112;-65
2023/08/24 06:27:44;;;;;;;7.60;6.90;;;22.50;99.90;;;;;;5032748;28;20563;-65
2023/08/24 06:30:11;;;;;;;10.60;5.97;;;22.60;99.90;;;;;;5026183;28;20495;-65
2023/08/24 06:32:38;;;;;;;8.17;6.17;;;22.60;99.90;;;;;;5026182;28;21259;-65
2023/08/24 06:35:07;;;;;;;12.30;7.60;;;22.70;99.90;;;;;;5033199;28;20487;-65
2023/08/24 06:37:34;;;;;;;8.70;6.60;;;22.70;99.90;;;;;;5028520;28;21971;-64
2023/08/24 06:40:02;;;;;;;11.20;6.53;;;22.90;99.90;;;;;;5025857;28;21314;-66
2023/08/24 06:42:29;;;;;;;7.97;7.00;;;22.90;99.90;;;;;;5032349;28;20559;-66
2023/08/24 06:44:56;;;;;;;9.77;7.83;;;23.10;99.90;;;;;;5020720;28;20604;-66
2023/08/24 06:47:23;;;;;;;7.73;7.03;;;23.20;99.90;;;;;;5030773;28;20480;-66
2023/08/24 06:49:51;;;;;;;11.17;5.93;;;23.40;99.90;;;;;;5025144;28;20857;-65
2023/08/24 06:52:19;;;;;;;9.37;6.63;;;23.40;99.90;;;;;;5029747;28;20787;-65
2023/08/24 06:54:48;;;;;;;10.87;7.00;;;23.70;99.90;;;;;;5025160;28;20701;-66
2023/08/24 06:57:15;;;;;;;7.50;5.97;;;24.10;99.90;;;;;;5034336;28;20664;-65
2023/08/24 06:59:42;;;;;;;9.80;6.23;;;24.60;98.80;;;;;;5024795;28;20471;-66
2023/08/24 07:02:09;;;;;;;9.13;6.03;;;25.00;97.80;;;;;;5029646;28;20588;-65
2023/08/24 07:04:36;;;;;;;6.77;6.17;;;25.20;97.20;;;;;;5031987;28;20578;-65
2023/08/24 07:07:03;;;;;;;7.50;6.27;;;25.60;97.10;;;;;;5033212;28;20919;-66
2023/08/24 07:09:32;;;;;;;12.93;6.53;;;;;;;;;;5030373;28;20567;-66
2023/08/24 07:11:59;;;;;;;14.03;6.60;;;26.00;96.60;;;;;;5030641;28;20595;-64
2023/08/24 07:14:26;;;;;;;16.83;6.60;;;26.10;96.20;;;;;;5030995;28;20639;-67
2023/08/24 07:16:53;;;;;;;7.00;5.63;;;26.20;96.10;;;;;;5030237;28;21228;-65
2023/08/24 07:19:20;;;;;;;10.73;6.00;;;;;;;;;;5030434;28;20563;-65
2023/08/24 07:21:47;;;;;;;5.77;5.20;;;26.30;95.30;;;;;;5033265;28;20504;-66
2023/08/24 07:24:14;;;;;;;6.27;5.50;;;26.40;95.40;;;;;;5035348;28;20574;-65
2023/08/24 07:26:43;;;;;;;6.70;5.90;;;26.40;94.60;;;;;;5027364;28;20483;-65
2023/08/24 07:29:10;;;;;;;10.53;5.70;;;26.40;94.70;;;;;;5031494;28;20486;-65
2023/08/24 07:31:37;;;;;;;8.70;5.73;;;26.40;94.80;;;;;;5031267;28;21095;-65
2023/08/24 07:34:04;;;;;;;11.60;5.57;;;26.40;94.50;;;;;;5028719;28;20519;-66
2023/08/24 07:36:31;;;;;;;6.13;5.53;;;26.60;95.00;;;;;;5027941;28;20840;-64
2023/08/24 07:38:58;;;;;;;7.10;5.90;;;26.70;94.60;;;;;;5029891;28;20514;-65
2023/08/24 07:41:25;;;;;;;6.10;5.50;;;26.80;94.60;;;;;;5021798;28;20927;-65
2023/08/24 07:43:53;;;;;;;5.67;5.13;;;27.00;94.70;;;;;;5033199;28;20468;-66
2023/08/24 07:46:20;;;;;;;8.20;5.90;;;27.10;94.30;;;;;;5030384;28;20502;-66
2023/08/24 07:48:47;;;;;;;6.07;5.00;;;27.20;94.30;;;;;;5027913;28;20547;-67
2023/08/24 07:51:14;;;;;;;8.07;5.80;;;27.30;93.60;;;;;;5030229;28;20465;-65
2023/08/24 07:53:41;;;;;;;6.30;4.90;;;27.30;93.90;;;;;;5025179;28;20494;-66
2023/08/24 07:56:08;;;;;;;13.93;5.70;;;27.40;94.00;;;;;;5028956;28;20474;-65
2023/08/24 07:58:35;;;;;;;6.80;5.10;;;27.40;94.30;;;;;;5024509;28;20570;-66
2023/08/24 08:01:03;;;;;;;6.87;4.70;;;27.50;93.50;;;;;;5019943;28;20507;-66
2023/08/24 08:03:30;;;;;;;8.50;5.33;;;27.70;93.50;;;;;;5035441;28;20579;-65
2023/08/24 08:05:58;;;;;;;14.47;6.60;;;27.80;92.80;;;;;;5020890;28;20462;-65
2023/08/24 08:08:25;;;;;;;5.23;4.73;;;27.80;93.20;;;;;;5023140;28;20503;-70
2023/08/24 08:10:59;;;;;;;8.33;6.53;;;27.90;92.90;;;;;;5041902;28;20495;-69
2023/08/24 08:13:26;;;;;;;6.90;5.10;;;28.00;92.60;;;;;;5030318;28;20458;-69
2023/08/24 08:15:53;;;;;;;8.30;5.10;;;28.00;92.20;;;;;;5025287;28;20610;-70
2023/08/24 08:18:21;;;;;;;7.20;5.37;;;28.00;92.70;;;;;;5022681;28;21031;-69
2023/08/24 08:20:52;;;;;;;8.10;6.20;;;28.30;92.50;;;;;;5034568;28;20463;-69
2023/08/24 08:23:19;;;;;;;5.90;5.40;;;28.40;93.20;;;;;;5009377;28;20980;-70
2023/08/24 08:25:45;;;;;;;15.93;5.43;;;28.60;92.50;;;;;;5026042;28;20455;-68
2023/08/24 08:28:12;;;;;;;5.60;5.10;;;28.70;92.50;;;;;;5020248;28;20860;-70
2023/08/24 08:30:39;;;;;;;5.90;5.40;;;28.90;93.40;;;;;;5040722;28;20450;-68
2023/08/24 08:33:06;;;;;;;5.20;4.70;;;29.10;92.70;;;;;;5023064;28;20951;-69
2023/08/24 08:35:35;;;;;;;26.10;6.13;;;29.30;92.80;;;;;;5023759;28;20499;-69
2023/08/24 08:38:01;;;;;;;11.00;4.73;;;29.40;92.40;;;;;;5025576;28;20536;-69
2023/08/24 08:40:31;;;;;;;7.80;5.07;;;29.50;92.30;;;;;;5028790;28;20560;-69
2023/08/24 08:42:58;;;;;;;5.43;4.70;;;29.60;91.90;;;;;;5032930;28;20534;-70
2023/08/24 08:45:27;;;;;;;15.27;5.93;;;29.80;92.40;;;;;;5024613;28;20940;-69
2023/08/24 08:47:57;;;;;;;7.13;4.90;;;29.70;92.30;;;;;;5015831;28;20529;-69
2023/08/24 08:50:24;;;;;;;5.57;5.07;;;29.90;91.90;;;;;;5036305;28;20513;-69
2023/08/24 08:52:53;;;;;;;5.60;4.70;;;29.90;91.60;;;;;;5023005;28;20512;-69
2023/08/24 08:55:20;;;;;;;5.07;4.67;;;30.00;91.20;;;;;;5028470;28;20974;-69
2023/08/24 08:57:49;;;;;;;11.90;5.47;;;30.10;91.80;;;;;;5030123;28;20461;-69
2023/08/24 09:00:17;;;;;;;6.10;4.60;;;30.20;92.60;;;;;;5022495;28;20576;-69
2023/08/24 09:02:46;;;;;;;6.97;5.03;;;30.40;91.50;;;;;;5022984;28;21366;-69
2023/08/24 09:05:13;;;;;;;12.37;5.00;;;30.50;91.30;;;;;;5027393;28;20489;-68
2023/08/24 09:07:41;;;;;;;5.20;4.70;;;30.50;90.90;;;;;;5026516;28;20494;-70
2023/08/24 09:10:10;;;;;;;5.43;4.43;;;30.60;91.30;;;;;;5031823;28;20455;-70
2023/08/24 09:12:36;;;;;;;5.03;4.53;;;30.70;91.70;;;;;;5020570;28;20490;-70
2023/08/24 09:15:06;;;;;;;10.20;5.37;;;30.90;91.00;;;;;;5032940;28;20522;-70
2023/08/24 09:17:34;;;;;;;4.70;4.30;;;30.90;90.60;;;;;;5023244;28;21274;-65
2023/08/24 09:20:08;;;;;;;4.83;4.10;;;30.90;90.90;;;;;;5027514;28;21107;-65
2023/08/24 09:22:37;;;;;;;6.90;5.40;;;31.10;92.10;;;;;;5030438;28;20469;-65
2023/08/24 09:25:06;;;;;;;8.30;4.80;;;31.30;90.70;;;;;;5015807;28;20805;-65
2023/08/24 09:27:36;;;;;;;5.57;4.60;;;31.30;90.30;;;;;;5037240;28;21297;-64
2023/08/24 09:30:03;;;;;;;5.97;5.20;;;31.50;91.60;;;;;;5029435;28;20453;-65
2023/08/24 09:32:31;;;;;;;4.20;3.70;;;31.60;89.10;;;;;;5032901;28;20872;-65
2023/08/24 09:35:05;;;;;;;4.80;4.30;;;31.50;88.40;;;;;;5019095;28;20446;-66
2023/08/24 09:37:34;;;;;;;8.13;4.27;;;31.50;88.90;;;;;;5022329;28;20488;-66
2023/08/24 09:40:07;;;;;;;7.17;4.47;;;31.40;89.10;;;;;;5030218;28;20475;-66
2023/08/24 09:42:41;;;;;;;6.50;5.20;;;31.10;83.90;;;;;;5014954;28;20481;-65
2023/08/24 09:45:12;;;;;;;12.70;4.27;;;31.20;88.10;;;;;;5015909;28;20701;-64
2023/08/24 09:47:39;;;;;;;5.97;4.07;;;31.20;84.90;;;;;;5039552;28;20523;-65
2023/08/24 09:50:08;;;;;;;4.00;3.70;;;31.30;90.10;;;;;;5012157;28;20541;-66
2023/08/24 09:52:36;;;;;;;6.67;4.67;;;31.50;90.50;;;;;;5036389;28;20878;-65
2023/08/24 09:55:06;;;;;;;6.80;4.60;;;31.80;84.80;;;;;;5004708;28;20462;-65
2023/08/24 09:57:38;;;;;;;9.63;5.20;;;32.00;88.90;;;;;;5032176;28;20466;-65
2023/08/24 10:00:11;;;;;;;5.37;3.93;;;31.80;86.20;;;;;;5015025;28;20830;-65
2023/08/24 10:02:42;;;;;;;6.57;4.20;;;31.60;81.60;;;;;;5024425;28;20579;-66
2023/08/24 10:05:11;;;;;;;12.17;4.90;;;31.40;81.80;;;;;;5033955;28;20487;-65
2023/08/24 10:07:39;;;;;;;9.67;4.10;;;31.50;86.80;;;;;;5031077;28;20461;-66
2023/08/24 10:10:10;;;;;;;6.07;4.47;;;31.70;86.00;;;;;;5030016;28;20481;-66
2023/08/24 10:12:44;;;;;;;6.30;4.73;;;31.70;83.50;;;;;;5031392;28;20934;-66
2023/08/24 10:15:13;;;;;;;7.40;4.60;;;31.90;82.30;;;;;;5029614;28;20541;-66
2023/08/24 10:17:41;;;;;;;4.33;3.93;;;31.90;83.50;;;;;;5024367;28;20916;-66
2023/08/24 10:20:10;;;;;;;6.67;4.30;;;31.90;85.90;;;;;;5022040;28;20485;-65
2023/08/24 10:22:39;;;;;;;4.73;4.33;;;32.00;85.10;;;;;;5026745;28;20484;-65
2023/08/24 10:25:08;;;;;;;6.23;4.50;;;32.20;85.60;;;;;;5026316;28;20502;-65
2023/08/24 10:27:36;;;;;;;10.73;5.27;;;32.20;83.30;;;;;;5022112;28;20487;-67
2023/08/24 10:30:02;;;;;;;6.13;4.80;;;32.20;83.70;;;;;;5028011;28;20538;-70
2023/08/24 10:32:31;;;;;;;4.67;4.27;;;32.30;88.50;;;;;;5034465;28;20987;-70
2023/08/24 10:34:58;;;;;;;4.87;4.03;;;32.60;86.20;;;;;;5021836;28;20452;-71
2023/08/24 10:37:29;;;;;;;4.00;3.70;;;32.60;80.90;;;;;;5031581;28;20458;-71
2023/08/24 10:39:56;;;;;;;4.30;3.77;;;;;;;;;;5029034;28;20487;-68
2023/08/24 10:42:25;;;;;;;7.10;5.13;;;32.60;82.50;;;;;;5036208;28;20455;-70
2023/08/24 10:44:52;;;;;;;5.03;4.20;;;32.90;86.00;;;;;;5027139;28;20858;-68
2023/08/24 10:47:20;;;;;;;5.50;4.57;;;33.10;86.60;;;;;;5028222;28;20893;-69
2023/08/24 10:50:00;;;;;;;5.60;4.60;;;33.30;87.20;;;;;;5030208;28;20773;-70
2023/08/24 10:52:32;;;;;;;4.57;3.93;;;33.50;86.60;;;;;;5031353;28;20832;-70
2023/08/24 10:55:03;;;;;;;8.53;5.10;;;33.90;85.50;;;;;;5027720;28;20714;-70
2023/08/24 10:57:36;;;;;;;5.47;4.70;;;34.00;84.90;;;;;;5032480;28;20483;-69
2023/08/24 11:00:08;;;;;;;7.43;4.93;;;33.80;78.10;;;;;;5028912;28;20533;-67
2023/08/24 11:02:45;;;;;;;5.97;5.20;;;33.80;82.20;;;;;;5026387;28;20471;-69
2023/08/24 11:05:19;;;;;;;4.63;4.30;;;33.70;81.10;;;;;;5012543;28;21071;-70
2023/08/24 11:07:51;;;;;;;7.90;4.17;;;33.50;80.00;;;;;;5017138;28;20481;-69
2023/08/24 11:10:18;;;;;;;4.40;4.03;;;33.30;80.50;;;;;;5029283;28;20460;-69
2023/08/24 11:13:14;;;;;;;6.83;4.80;;;33.20;80.90;;;;;;5029114;28;20480;-69
2023/08/24 11:15:42;;;;;;;5.20;4.80;;;33.00;78.00;;;;;;5022260;28;20479;-69
2023/08/24 11:18:30;;;;;;;7.60;4.97;;;33.10;81.00;;;;;;5031121;28;20483;-68
2023/08/24 11:21:02;;;;;;;7.87;4.67;;;33.20;84.40;;;;;;5018398;28;20579;-68
2023/08/24 11:23:30;;;;;;;4.40;4.00;;;33.20;84.80;;;;;;5037171;28;21190;-68
2023/08/24 11:25:59;;;;;;;7.07;5.43;;;33.20;85.60;;;;;;5018071;28;20562;-69
2023/08/24 11:28:28;;;;;;;5.10;4.60;;;33.10;83.80;;;;;;5033982;28;21220;-69
2023/08/24 11:30:55;;;;;;;12.03;5.10;;;32.90;81.40;;;;;;5025009;28;20484;-70
2023/08/24 11:33:30;;;;;;;8.03;4.73;;;32.60;80.50;;;;;;5024389;28;21003;-69
2023/08/24 11:35:59;;;;;;;4.40;3.97;;;32.70;82.00;;;;;;5029811;28;20491;-70
2023/08/24 11:38:26;;;;;;;4.73;4.43;;;32.50;80.80;;;;;;5026581;28;20870;-65
2023/08/24 11:40:53;;;;;;;6.97;4.13;;;32.40;83.40;;;;;;5030552;28;20463;-65
2023/08/24 11:43:26;;;;;;;7.53;5.37;;;32.40;85.80;;;;;;5029479;28;20534;-66
2023/08/24 11:45:55;;;;;;;5.40;4.90;;;32.40;83.00;;;;;;5028550;28;20484;-65
2023/08/24 11:48:26;;;;;;;5.50;5.03;;;32.40;82.50;;;;;;5024708;28;20505;-66
2023/08/24 11:50:54;;;;;;;8.23;5.07;;;32.60;83.30;;;;;;5033285;28;20569;-64
2023/08/24 11:53:24;;;;;;;15.03;6.43;;;32.60;85.70;;;;;;5031230;28;20472;-65
2023/08/24 11:55:53;;;;;;;5.13;4.63;;;32.70;81.90;;;;;;5023871;28;20851;-65
2023/08/24 11:58:20;;;;;;;5.63;5.13;;;32.80;83.00;;;;;;5029205;28;20482;-65
2023/08/24 12:00:47;;;;;;;12.70;5.80;;;33.00;82.60;;;;;;5017880;28;20635;-65
2023/08/24 12:03:15;;;;;;;6.50;5.13;;;33.00;83.20;;;;;;5027963;28;20472;-64
2023/08/24 12:05:42;;;;;;;5.93;5.33;;;33.10;82.80;;;;;;5017606;28;20476;-65
2023/08/24 12:08:12;;;;;;;7.27;5.23;;;33.20;81.60;;;;;;5022932;28;20480;-65
2023/08/24 12:10:44;;;;;;;17.83;5.77;;;33.20;80.60;;;;;;5018513;28;20496;-64
2023/08/24 12:13:13;;;;;;;8.30;4.80;;;33.40;87.50;;;;;;5026298;28;20484;-66
2023/08/24 12:15:41;;;;;;;6.33;5.73;;;33.40;82.90;;;;;;5022821;28;20469;-65
2023/08/24 12:18:09;;;;;;;5.00;4.60;;;33.80;85.60;;;;;;5029454;28;20478;-65
2023/08/24 12:20:36;;;;;;;18.23;5.70;;;34.30;84.90;;;;;;5020966;28;20455;-65
2023/08/24 12:23:04;;;;;;;8.57;5.50;;;34.30;84.30;;;;;;5027775;28;21327;-66
2023/08/24 12:25:31;;;;;;;5.40;4.90;;;34.00;82.20;;;;;;5024940;28;20486;-65
2023/08/24 12:28:12;;;;;;;5.67;5.13;;;34.20;86.00;;;;;;5028893;28;20471;-65
2023/08/24 12:30:49;;;;;;;9.10;5.10;;;;;;;;;;5020897;28;20597;-66
2023/08/24 12:33:24;;;;;;;6.33;5.37;;;34.10;83.20;;;;;;5027937;28;20452;-65
2023/08/24 12:35:51;;;;;;;5.30;4.80;;;33.30;81.10;;;;;;5027442;28;20475;-65
2023/08/24 12:38:18;;;;;;;6.47;5.10;;;33.20;81.20;;;;;;5026363;28;21028;-65
2023/08/24 12:40:45;;;;;;;6.10;5.50;;;33.30;85.70;;;;;;5027550;28;20689;-65
2023/08/24 12:43:13;;;;;;;7.00;5.77;;;33.20;86.50;;;;;;5027702;28;20510;-64
2023/08/24 12:45:40;;;;;;;6.60;5.80;;;33.70;86.30;;;;;;5024646;28;20918;-64
2023/08/24 12:48:08;;;;;;;6.03;5.30;;;33.90;86.80;;;;;;5015491;28;20469;-65
2023/08/24 12:50:35;;;;;;;5.63;4.97;;;34.20;85.50;;;;;;5033859;28;20476;-64